Main page
METAR-TAF:

METAR-TAF

Airports :

Dundee Airport

Dundee, Scotland

latitude: 56-27N, longitude: 003-01W, elevation: 4 m

Current weather observation

The report was made 30 minutes ago, at 09:50 UTC
Wind 7 kt from the East/Southeast
Temperature 9°C
Humidity 76%
Pressure 1031 hPa
Visibility 10 km or more
Few clouds at a height of 1800 ft
Broken clouds at a height of 3100 ft

METAR: EGPN 190950Z 11007KT 9999 FEW018 BKN031 09/05 Q1031

Time: 10:20 (10:20 UTC)

Forecast

The report was made 2 hours and 22 minutes ago, at 07:58 UTC
Forecast valid from 19 at 09 UTC to 19 at 18 UTC
Wind 9 kt from the East
Visibility 10 km or more
Scattered clouds at a height of 1800 ft
Broken clouds at a height of 3000 ft

TAF: EGPN 190758Z 1909/1918 09009KT 9999 SCT018 BKN030

Weather observations and forecasts of more than 4000 airports (METAR and TAF reports).

The available stations are represented by yellow and red dots on the map.

Hover mouse over dot to see the name of the station.

Then click to see weather observations and forecasts.

To change the map : click on the green buttons with a black cross to zoom in, on the green button with a dash to zoom out, or on the green arrows for adjacent maps.


METAR-TAF: